Time;durP1;ratioP1;P1;durP2;ratioP2;P2;SDS_P1;SDS_P2;PMS_P1;PMS_P2;Temp;Humidity;BMP_temperature;BMP_pressure;BME280_temperature;BME280_humidity;BME280_pressure;Samples;Min_cycle;Max_cycle;Signal;HPM_P1;HPM_P2
2021/12/30 00:00:00;;;;;;;45.58;6.43;;;8.10;99.90;;;;;;5035324;28;20081;-78
2021/12/30 00:02:29;;;;;;;34.78;6.22;;;8.10;99.90;;;;;;5035467;28;20480;-78
2021/12/30 00:04:54;;;;;;;39.65;6.07;;;8.10;99.90;;;;;;5035969;28;20472;-78
2021/12/30 00:07:20;;;;;;;33.60;5.70;;;8.10;99.90;;;;;;5045799;28;20119;-84
2021/12/30 00:09:46;;;;;;;44.15;6.28;;;8.10;99.90;;;;;;5039056;28;20059;-85
2021/12/30 00:12:12;;;;;;;45.80;6.65;;;8.10;99.90;;;;;;5034012;28;20080;-85
2021/12/30 00:14:38;;;;;;;38.17;5.63;;;8.10;99.90;;;;;;5035329;28;20045;-78
2021/12/30 00:17:04;;;;;;;39.78;5.57;;;8.00;99.90;;;;;;5035028;28;20458;-84
2021/12/30 00:19:29;;;;;;;32.95;5.47;;;8.00;99.90;;;;;;5033731;28;20037;-78
2021/12/30 00:21:55;;;;;;;33.50;5.50;;;8.10;99.90;;;;;;5033791;28;20045;-78
2021/12/30 00:24:21;;;;;;;39.47;5.95;;;7.90;99.90;;;;;;5033601;28;20117;-85
2021/12/30 00:26:46;;;;;;;39.50;5.88;;;8.20;99.90;;;;;;5035110;28;20041;-85
2021/12/30 00:29:12;;;;;;;47.78;6.40;;;7.90;99.90;;;;;;5034997;28;20053;-78
2021/12/30 00:31:37;;;;;;;30.85;5.15;;;8.30;99.90;;;;;;5033679;28;20132;-78
2021/12/30 00:34:03;;;;;;;38.63;6.72;;;7.80;99.90;;;;;;5034773;28;20516;-85
2021/12/30 00:36:29;;;;;;;35.85;5.75;;;8.10;99.90;;;;;;5034860;28;20083;-78
2021/12/30 00:38:55;;;;;;;37.65;5.70;;;7.80;99.90;;;;;;5034509;28;20088;-85
2021/12/30 00:41:21;;;;;;;33.83;5.90;;;7.80;99.90;;;;;;5034627;28;20472;-85
2021/12/30 00:43:47;;;;;;;30.52;5.53;;;7.90;99.90;;;;;;5034621;28;20048;-78
2021/12/30 00:46:13;;;;;;;36.47;5.10;;;8.00;99.90;;;;;;5034554;28;20051;-79
2021/12/30 00:48:40;;;;;;;33.17;5.65;;;7.70;99.90;;;;;;5033236;28;20113;-78
2021/12/30 00:51:07;;;;;;;35.65;5.40;;;7.80;99.90;;;;;;5033412;28;20057;-78
2021/12/30 00:53:33;;;;;;;36.05;5.60;;;7.90;99.90;;;;;;5034381;28;20396;-85
2021/12/30 00:56:00;;;;;;;36.75;5.78;;;7.80;99.90;;;;;;5034603;28;20052;-79
2021/12/30 00:58:26;;;;;;;44.00;6.53;;;7.70;99.90;;;;;;5034540;28;20052;-78
2021/12/30 01:00:53;;;;;;;34.67;5.43;;;7.70;99.90;;;;;;5034565;28;20113;-79
2021/12/30 01:03:19;;;;;;;33.97;5.28;;;7.80;99.90;;;;;;5033432;28;20111;-85
2021/12/30 01:05:45;;;;;;;38.42;5.55;;;7.70;99.90;;;;;;5034425;28;20029;-78
2021/12/30 01:08:11;;;;;;;40.05;6.18;;;7.70;99.90;;;;;;5034244;28;20044;-86
2021/12/30 01:10:38;;;;;;;34.85;5.43;;;7.70;99.90;;;;;;5034160;28;20087;-79
2021/12/30 01:13:08;;;;;;;45.28;5.90;;;7.70;99.90;;;;;;5034553;28;20072;-78
2021/12/30 01:15:55;;;;;;;37.25;6.03;;;7.70;99.90;;;;;;5035800;28;20539;-84
2021/12/30 01:18:29;;;;;;;35.80;5.60;;;7.70;99.90;;;;;;5034223;28;20077;-79
2021/12/30 01:20:57;;;;;;;33.70;5.43;;;7.70;99.90;;;;;;5032792;28;20081;-85
2021/12/30 01:23:24;;;;;;;36.17;5.60;;;7.60;99.90;;;;;;5034267;28;20042;-86
2021/12/30 01:25:50;;;;;;;38.45;5.82;;;7.70;99.90;;;;;;5034150;28;20065;-79
2021/12/30 01:28:16;;;;;;;37.28;6.03;;;7.60;99.90;;;;;;5016253;28;20073;-79
2021/12/30 01:30:42;;;;;;;41.83;6.30;;;7.60;99.90;;;;;;5033883;28;20045;-86
2021/12/30 01:33:08;;;;;;;38.47;5.70;;;7.60;99.90;;;;;;5033736;28;20485;-85
2021/12/30 01:35:33;;;;;;;30.42;4.95;;;7.60;99.90;;;;;;5032570;28;20099;-79
2021/12/30 01:38:01;;;;;;;39.28;5.68;;;7.70;99.90;;;;;;5017347;28;20037;-79
2021/12/30 01:40:30;;;;;;;38.28;5.70;;;7.70;99.90;;;;;;5036669;28;20522;-85
2021/12/30 01:42:56;;;;;;;38.10;5.93;;;7.60;99.90;;;;;;5032682;28;20042;-78
2021/12/30 01:45:22;;;;;;;36.85;5.82;;;7.90;99.90;;;;;;5033236;28;20440;-85
2021/12/30 01:47:52;;;;;;;36.65;5.88;;;7.60;99.90;;;;;;5034103;28;20034;-79
2021/12/30 01:50:19;;;;;;;32.85;5.50;;;7.60;99.90;;;;;;5033617;28;20075;-79
2021/12/30 01:52:45;;;;;;;37.28;6.22;;;7.70;99.90;;;;;;5033673;28;20479;-79
2021/12/30 01:55:12;;;;;;;39.65;6.47;;;7.70;99.90;;;;;;5033794;28;20091;-86
2021/12/30 01:57:38;;;;;;;32.53;5.75;;;7.70;99.90;;;;;;5033639;28;20030;-79
2021/12/30 02:00:07;;;;;;;34.72;5.75;;;7.70;99.90;;;;;;5033493;28;20054;-80
2021/12/30 02:02:33;;;;;;;37.00;6.03;;;7.60;99.90;;;;;;5033840;28;20052;-85
2021/12/30 02:04:58;;;;;;;48.33;7.25;;;7.60;99.90;;;;;;5015811;28;20041;-79
2021/12/30 02:07:24;;;;;;;41.45;6.18;;;7.70;99.90;;;;;;5033700;28;20088;-79
2021/12/30 02:09:51;;;;;;;34.72;7.10;;;7.60;99.90;;;;;;5033670;28;20042;-79
2021/12/30 02:12:16;;;;;;;39.85;7.20;;;7.60;99.90;;;;;;5033541;28;20048;-79
2021/12/30 02:14:42;;;;;;;40.78;6.63;;;7.70;99.90;;;;;;5033653;28;20037;-85
2021/12/30 02:17:08;;;;;;;39.28;7.47;;;7.60;99.90;;;;;;5033409;28;20072;-85
2021/12/30 02:19:34;;;;;;;39.65;7.95;;;8.00;99.90;;;;;;5033270;28;20041;-79
2021/12/30 02:22:01;;;;;;;41.53;8.23;;;7.60;99.90;;;;;;5033847;28;20129;-79
2021/12/30 02:24:27;;;;;;;40.85;8.60;;;7.60;99.90;;;;;;5033426;28;20037;-78
2021/12/30 02:26:53;;;;;;;53.25;9.07;;;7.60;99.90;;;;;;5033292;28;20046;-79
2021/12/30 02:29:19;;;;;;;42.10;9.35;;;7.60;99.90;;;;;;5033365;28;20099;-79
2021/12/30 02:31:44;;;;;;;43.67;9.63;;;8.00;99.90;;;;;;5033334;28;20030;-79
2021/12/30 02:34:10;;;;;;;43.58;10.10;;;7.60;99.90;;;;;;5031878;28;20048;-83
2021/12/30 02:36:37;;;;;;;45.30;11.15;;;7.60;99.90;;;;;;5032247;28;20614;-79
2021/12/30 02:39:08;;;;;;;52.35;11.20;;;7.60;99.90;;;;;;5033310;28;20038;-79
2021/12/30 02:41:36;;;;;;;63.65;11.05;;;7.70;99.90;;;;;;5033288;28;20053;-82
2021/12/30 02:44:04;;;;;;;53.95;11.55;;;7.90;99.90;;;;;;5032640;28;20090;-85
2021/12/30 02:46:30;;;;;;;59.65;11.40;;;7.70;99.90;;;;;;5033244;28;20046;-85
2021/12/30 02:48:57;;;;;;;59.22;11.48;;;8.10;99.90;;;;;;5031938;28;20472;-79
2021/12/30 02:51:23;;;;;;;57.65;12.07;;;7.80;99.90;;;;;;5031891;28;20049;-86
2021/12/30 02:53:49;;;;;;;57.17;12.68;;;7.80;99.90;;;;;;5033578;28;20061;-79
2021/12/30 02:56:16;;;;;;;56.90;12.35;;;7.90;99.90;;;;;;5035717;28;20045;-79
2021/12/30 02:58:41;;;;;;;59.35;12.32;;;8.20;99.90;;;;;;5037021;28;20436;-86
2021/12/30 03:01:11;;;;;;;52.47;11.13;;;8.00;99.90;;;;;;5036819;28;20050;-79
2021/12/30 03:03:37;;;;;;;62.30;11.48;;;8.00;99.90;;;;;;5036683;28;20041;-79
2021/12/30 03:06:05;;;;;;;55.70;11.50;;;8.10;99.90;;;;;;5036511;28;20041;-78
2021/12/30 03:08:32;;;;;;;50.38;11.40;;;8.20;99.90;;;;;;5035182;28;20488;-79
2021/12/30 03:10:59;;;;;;;59.92;11.30;;;8.30;99.90;;;;;;5036800;28;20045;-79
2021/12/30 03:13:32;;;;;;;49.88;10.32;;;8.70;99.90;;;;;;5036581;28;20050;-79
2021/12/30 03:16:07;;;;;;;61.92;11.32;;;8.60;99.90;;;;;;5036735;28;20037;-79
2021/12/30 03:18:35;;;;;;;54.10;10.38;;;8.70;99.90;;;;;;5036479;28;20045;-79
2021/12/30 03:21:03;;;;;;;61.97;11.50;;;8.80;99.90;;;;;;5036960;28;20045;-78
2021/12/30 03:23:29;;;;;;;57.50;11.10;;;8.80;99.90;;;;;;5036666;28;20116;-83
2021/12/30 03:25:55;;;;;;;49.08;9.18;;;9.20;99.90;;;;;;5036550;28;20512;-78
2021/12/30 03:28:21;;;;;;;49.88;9.70;;;8.90;99.90;;;;;;5037265;28;20400;-79
2021/12/30 03:30:47;;;;;;;56.83;10.40;;;9.20;99.90;;;;;;5038166;28;20401;-78
2021/12/30 03:33:13;;;;;;;61.47;10.25;;;9.10;99.90;;;;;;5019400;28;20068;-87
2021/12/30 03:35:39;;;;;;;46.92;9.65;;;9.30;99.90;;;;;;5037467;28;20120;-79
2021/12/30 03:38:05;;;;;;;49.30;9.48;;;9.70;99.90;;;;;;5037491;28;20071;-79
2021/12/30 03:40:34;;;;;;;51.83;9.18;;;9.50;99.90;;;;;;5037613;28;20495;-86
2021/12/30 03:42:59;;;;;;;55.40;9.32;;;9.50;99.90;;;;;;5037363;28;20357;-79
2021/12/30 03:45:25;;;;;;;51.75;9.57;;;9.30;99.90;;;;;;5037410;28;20128;-79
2021/12/30 03:47:51;;;;;;;49.25;8.93;;;9.30;99.90;;;;;;5037870;28;20037;-86
2021/12/30 03:50:21;;;;;;;51.03;9.75;;;9.90;99.90;;;;;;5036017;28;20049;-79
2021/12/30 03:52:54;;;;;;;54.03;9.18;;;9.40;99.90;;;;;;5036028;28;20056;-79
2021/12/30 03:55:21;;;;;;;50.08;9.00;;;9.40;99.90;;;;;;5035749;28;20114;-79
2021/12/30 03:57:48;;;;;;;50.35;9.82;;;9.50;99.90;;;;;;5036097;28;20060;-79
2021/12/30 04:00:14;;;;;;;53.63;11.02;;;9.70;99.90;;;;;;5036941;28;20049;-81
2021/12/30 04:02:40;;;;;;;51.97;9.95;;;9.50;99.90;;;;;;5036929;28;20068;-86
2021/12/30 04:05:07;;;;;;;63.15;10.90;;;9.50;99.90;;;;;;5035650;28;20053;-79
2021/12/30 04:07:33;;;;;;;65.72;11.38;;;9.50;99.90;;;;;;5036356;28;20535;-86
2021/12/30 04:09:59;;;;;;;65.10;10.93;;;9.50;99.90;;;;;;5021155;28;20037;-79
2021/12/30 04:12:24;;;;;;;60.28;10.80;;;9.60;99.90;;;;;;5056220;22;20514;-79
2021/12/30 04:14:50;;;;;;;61.80;11.90;;;9.90;99.90;;;;;;5076344;28;20052;-79
2021/12/30 04:17:16;;;;;;;65.25;12.02;;;10.20;99.90;;;;;;5077227;28;20383;-80
2021/12/30 04:19:42;;;;;;;60.45;11.57;;;10.00;99.90;;;;;;5077549;28;20036;-87
2021/12/30 04:22:07;;;;;;;73.60;13.15;;;10.00;99.90;;;;;;5076053;28;20071;-86
2021/12/30 04:24:33;;;;;;;67.65;13.10;;;9.80;99.90;;;;;;5077730;28;20044;-79
2021/12/30 04:26:59;;;;;;;61.67;11.85;;;9.70;99.90;;;;;;5076157;28;20048;-79
2021/12/30 04:29:24;;;;;;;71.35;14.35;;;10.50;99.90;;;;;;5077383;28;20045;-87
2021/12/30 04:31:50;;;;;;;69.45;13.80;;;9.80;99.90;;;;;;5059130;28;20397;-79
2021/12/30 04:34:17;;;;;;;72.32;14.45;;;10.00;99.90;;;;;;5077136;28;20441;-80
2021/12/30 04:36:43;;;;;;;70.57;14.43;;;9.90;99.90;;;;;;5076107;28;20094;-87
2021/12/30 04:39:09;;;;;;;60.85;13.80;;;9.90;99.90;;;;;;5075229;28;20032;-79
2021/12/30 04:41:35;;;;;;;58.65;13.52;;;9.90;99.90;;;;;;5075345;28;20055;-84
2021/12/30 04:44:01;;;;;;;73.35;14.85;;;10.40;99.90;;;;;;5075047;28;20048;-79
2021/12/30 04:46:27;;;;;;;71.80;15.10;;;9.90;99.90;;;;;;5075983;28;20478;-79
2021/12/30 04:48:52;;;;;;;78.20;15.23;;;10.00;99.90;;;;;;5076173;28;20042;-79
2021/12/30 04:51:19;;;;;;;72.10;15.75;;;9.90;99.90;;;;;;5076122;28;20494;-79
2021/12/30 04:53:45;;;;;;;84.03;16.95;;;10.00;99.90;;;;;;5075530;28;20503;-86
2021/12/30 04:56:11;;;;;;;79.70;16.13;;;10.00;99.90;;;;;;5074678;28;20062;-87
2021/12/30 04:58:37;;;;;;;71.00;17.02;;;10.10;99.90;;;;;;5075689;28;20033;-87
2021/12/30 05:01:04;;;;;;;85.97;17.95;;;10.10;99.90;;;;;;5074108;28;20505;-87
2021/12/30 05:03:30;;;;;;;95.32;18.25;;;10.40;99.90;;;;;;5074274;28;20478;-79
2021/12/30 05:05:56;;;;;;;82.57;18.00;;;10.20;99.90;;;;;;5075498;28;20044;-79
2021/12/30 05:08:25;;;;;;;83.85;17.00;;;10.20;99.90;;;;;;5075227;28;20083;-82
2021/12/30 05:10:51;;;;;;;87.78;18.95;;;10.70;99.90;;;;;;5074054;28;20494;-79
2021/12/30 05:13:17;;;;;;;81.03;18.38;;;10.20;99.90;;;;;;5074588;28;20074;-79
2021/12/30 05:15:43;;;;;;;83.75;18.63;;;10.30;99.90;;;;;;5075368;28;20052;-87
2021/12/30 05:18:10;;;;;;;89.00;18.27;;;10.20;99.90;;;;;;5073637;28;20041;-79
2021/12/30 05:20:37;;;;;;;81.60;18.30;;;10.30;99.90;;;;;;5075069;28;20119;-79
2021/12/30 05:23:04;;;;;;;99.93;19.38;;;10.50;99.90;;;;;;5076028;28;20064;-88
2021/12/30 05:25:29;;;;;;;87.05;18.40;;;10.50;99.90;;;;;;5074561;28;20048;-87
2021/12/30 05:27:55;;;;;;;105.13;19.83;;;10.40;99.90;;;;;;5075193;28;20046;-82
2021/12/30 05:30:22;;;;;;;86.75;17.77;;;10.70;99.90;;;;;;5074557;28;20040;-79
2021/12/30 05:32:49;;;;;;;94.38;19.17;;;10.40;99.90;;;;;;5057589;28;20040;-79
2021/12/30 05:35:15;;;;;;;95.28;18.45;;;10.40;99.90;;;;;;5057351;28;20628;-84
2021/12/30 05:37:42;;;;;;;96.82;18.92;;;10.50;99.90;;;;;;5074785;28;20044;-87
2021/12/30 05:40:11;;;;;;;99.68;19.23;;;10.50;99.90;;;;;;5073928;28;20040;-87
2021/12/30 05:42:37;;;;;;;99.85;19.00;;;10.50;99.90;;;;;;5057278;28;20047;-79
2021/12/30 05:45:03;;;;;;;92.10;18.80;;;10.60;99.90;;;;;;5074824;28;20050;-79
2021/12/30 05:47:29;;;;;;;101.32;19.58;;;10.50;99.90;;;;;;5074250;28;20045;-79
2021/12/30 05:49:54;;;;;;;124.50;20.35;;;10.70;99.90;;;;;;5080525;28;20040;-85
2021/12/30 05:52:20;;;;;;;125.22;20.58;;;10.70;99.90;;;;;;5075600;28;20514;-79
2021/12/30 05:54:46;;;;;;;122.47;19.95;;;10.50;99.90;;;;;;5074647;28;20055;-80
2021/12/30 05:57:12;;;;;;;105.43;18.20;;;11.00;99.90;;;;;;5058799;28;20037;-88
2021/12/30 05:59:38;;;;;;;113.30;18.58;;;10.50;99.90;;;;;;5075886;28;20047;-79
2021/12/30 06:02:04;;;;;;;124.43;19.98;;;10.50;99.90;;;;;;5074501;28;20481;-79
2021/12/30 06:04:29;;;;;;;92.40;17.38;;;10.50;99.90;;;;;;5075194;28;20044;-80
2021/12/30 06:06:55;;;;;;;88.28;15.90;;;10.50;99.90;;;;;;5075718;28;20048;-79
2021/12/30 06:09:22;;;;;;;88.10;15.60;;;10.80;99.90;;;;;;5057719;28;20107;-79
2021/12/30 06:11:48;;;;;;;78.70;16.67;;;10.50;99.90;;;;;;5080066;28;20116;-79
2021/12/30 06:14:14;;;;;;;70.80;15.57;;;11.00;99.90;;;;;;5074472;28;20084;-89
2021/12/30 06:16:40;;;;;;;67.22;15.65;;;10.30;99.90;;;;;;5057405;28;20490;-79
2021/12/30 06:19:05;;;;;;;61.22;14.20;;;10.50;99.90;;;;;;5075109;28;20055;-79
2021/12/30 06:21:31;;;;;;;55.95;14.35;;;10.70;99.90;;;;;;5074269;28;20043;-79
2021/12/30 06:23:57;;;;;;;63.63;15.48;;;10.50;99.90;;;;;;5074125;28;20111;-79
2021/12/30 06:26:22;;;;;;;71.82;16.52;;;11.00;99.90;;;;;;5075577;28;20071;-79
2021/12/30 06:28:48;;;;;;;64.10;15.40;;;10.50;99.90;;;;;;5075035;28;20093;-79
2021/12/30 06:31:14;;;;;;;60.75;16.25;;;10.50;99.90;;;;;;5060641;28;20056;-79
2021/12/30 06:33:40;;;;;;;56.83;15.95;;;10.50;99.90;;;;;;5062820;28;20048;-79
2021/12/30 06:36:07;;;;;;;65.88;17.85;;;10.90;99.90;;;;;;5062412;28;20036;-79
2021/12/30 06:38:33;;;;;;;57.63;17.40;;;10.50;99.90;;;;;;5063657;28;20040;-81
2021/12/30 06:41:00;;;;;;;61.63;16.77;;;10.70;99.90;;;;;;5072795;22;20036;-80
2021/12/30 06:43:25;;;;;;;60.25;16.73;;;10.70;99.90;;;;;;5083632;28;20040;-88
2021/12/30 06:45:51;;;;;;;42.85;13.57;;;10.80;99.90;;;;;;5099636;28;20051;-79
2021/12/30 06:48:17;;;;;;;45.65;14.02;;;10.80;99.90;;;;;;5100228;28;20118;-79
2021/12/30 06:53:08;;;;;;;40.85;11.18;;;10.90;99.90;;;;;;5106361;22;20105;-87
2021/12/30 06:55:34;;;;;;;28.60;8.98;;;10.80;99.90;;;;;;5084167;28;20048;-90
2021/12/30 06:57:59;;;;;;;32.78;8.82;;;10.90;99.90;;;;;;5099929;22;20521;-81
2021/12/30 07:00:25;;;;;;;32.25;9.30;;;10.90;99.90;;;;;;5095994;22;20139;-80
2021/12/30 07:05:19;;;;;;;29.10;9.05;;;10.90;99.90;;;;;;5088982;22;20060;-89
2021/12/30 07:07:45;;;;;;;28.52;9.02;;;10.90;99.90;;;;;;5100967;28;20123;-80
2021/12/30 07:10:11;;;;;;;25.40;8.43;;;10.90;99.90;;;;;;5108877;22;20056;-79
2021/12/30 07:12:37;;;;;;;23.17;7.65;;;11.20;99.90;;;;;;5099570;28;20071;-81
2021/12/30 07:15:06;;;;;;;21.83;8.13;;;10.90;99.90;;;;;;5099779;28;20047;-79
2021/12/30 07:17:32;;;;;;;21.83;7.50;;;10.90;99.90;;;;;;5098430;28;20083;-79
2021/12/30 07:19:58;;;;;;;18.75;6.95;;;11.20;99.90;;;;;;5080651;28;20048;-79
2021/12/30 07:22:25;;;;;;;21.67;6.93;;;11.40;99.90;;;;;;5100360;28;20050;-80
2021/12/30 07:27:16;;;;;;;22.77;7.03;;;10.90;99.90;;;;;;5105744;22;20074;-79
2021/12/30 07:29:41;;;;;;;20.15;7.13;;;11.30;99.90;;;;;;5082124;28;20520;-87
2021/12/30 07:32:07;;;;;;;22.55;7.80;;;11.40;99.90;;;;;;5081109;28;20043;-79
2021/12/30 07:34:33;;;;;;;18.05;7.68;;;11.20;99.90;;;;;;5098102;28;20075;-79
2021/12/30 07:36:58;;;;;;;23.13;7.80;;;10.90;99.90;;;;;;5096895;28;20547;-79
2021/12/30 07:39:24;;;;;;;30.05;10.35;;;10.90;99.90;;;;;;5098280;28;20040;-79
2021/12/30 07:41:50;;;;;;;32.65;9.65;;;10.90;99.90;;;;;;5096004;28;20102;-79
2021/12/30 07:44:15;;;;;;;27.27;9.30;;;10.90;99.90;;;;;;5079975;28;20028;-79
2021/12/30 07:46:41;;;;;;;31.63;10.50;;;10.90;99.90;;;;;;5097005;28;20051;-89
2021/12/30 07:49:07;;;;;;;30.92;10.27;;;11.00;99.90;;;;;;5096769;28;20055;-79
2021/12/30 07:51:33;;;;;;;32.22;10.02;;;11.00;99.90;;;;;;5095717;22;20153;-79
2021/12/30 07:54:00;;;;;;;29.63;9.18;;;11.00;99.90;;;;;;5097028;28;20187;-79
2021/12/30 07:56:25;;;;;;;28.35;9.30;;;11.00;99.90;;;;;;5096632;28;20040;-79
2021/12/30 07:58:51;;;;;;;26.90;9.02;;;11.10;99.90;;;;;;5078711;28;20110;-87
2021/12/30 08:01:17;;;;;;;31.05;9.43;;;11.10;99.90;;;;;;5097411;28;20063;-79
2021/12/30 08:03:43;;;;;;;23.65;8.20;;;11.00;99.90;;;;;;5097873;28;20046;-87
2021/12/30 08:06:09;;;;;;;25.23;8.23;;;11.40;99.90;;;;;;5097191;28;20064;-88
2021/12/30 08:08:34;;;;;;;26.92;8.43;;;11.30;99.90;;;;;;5095845;28;20043;-84
2021/12/30 08:11:00;;;;;;;31.17;8.60;;;11.00;99.90;;;;;;5096986;28;20479;-79
2021/12/30 08:13:27;;;;;;;27.27;7.40;;;11.10;99.90;;;;;;5095901;28;20402;-79
2021/12/30 08:15:53;;;;;;;27.23;7.68;;;11.00;99.90;;;;;;5095554;28;20501;-87
2021/12/30 08:18:19;;;;;;;25.20;7.20;;;11.10;99.90;;;;;;5096344;28;20043;-79
2021/12/30 08:20:45;;;;;;;23.83;5.93;;;11.10;99.90;;;;;;5095421;28;20106;-85
2021/12/30 08:23:11;;;;;;;18.50;5.60;;;11.40;99.90;;;;;;5097175;28;20048;-88
2021/12/30 08:25:37;;;;;;;20.95;6.00;;;10.90;99.90;;;;;;5096839;28;20048;-79
2021/12/30 08:28:03;;;;;;;23.67;6.43;;;11.40;99.90;;;;;;5096272;28;20104;-79
2021/12/30 08:30:28;;;;;;;21.35;5.63;;;10.90;99.90;;;;;;5095685;28;20494;-79
2021/12/30 08:32:54;;;;;;;16.92;4.43;;;10.90;99.90;;;;;;5078599;28;20095;-82
2021/12/30 08:35:21;;;;;;;20.15;5.32;;;11.00;99.90;;;;;;5095189;28;20115;-79
2021/12/30 08:37:47;;;;;;;17.45;4.40;;;11.10;99.90;;;;;;5095757;28;20117;-80
2021/12/30 08:40:14;;;;;;;19.10;5.43;;;11.10;99.90;;;;;;5097127;28;20440;-79
2021/12/30 08:42:41;;;;;;;17.30;5.25;;;11.10;99.90;;;;;;5097050;28;20040;-84
2021/12/30 08:45:08;;;;;;;18.33;5.07;;;11.30;99.90;;;;;;5095266;28;20131;-87
2021/12/30 08:47:35;;;;;;;20.08;5.20;;;11.20;99.90;;;;;;5096458;28;20036;-90
2021/12/30 08:50:01;;;;;;;15.30;4.38;;;11.40;99.90;;;;;;5096441;28;20124;-79
2021/12/30 08:52:28;;;;;;;18.65;4.90;;;11.30;99.90;;;;;;5096593;28;20131;-79
2021/12/30 08:54:56;;;;;;;17.38;4.25;;;11.30;99.90;;;;;;5095927;28;20099;-79
2021/12/30 08:57:23;;;;;;;17.17;4.38;;;11.70;99.90;;;;;;5096282;28;20047;-79
2021/12/30 08:59:49;;;;;;;14.50;4.35;;;11.30;99.90;;;;;;5096122;28;20097;-79
2021/12/30 09:02:15;;;;;;;17.30;4.60;;;11.90;99.90;;;;;;5094865;28;20052;-79
2021/12/30 09:04:45;;;;;;;17.85;4.70;;;11.40;99.90;;;;;;5112146;28;20044;-81
2021/12/30 09:07:11;;;;;;;13.57;4.32;;;11.40;99.90;;;;;;5113989;28;20126;-79
2021/12/30 09:09:37;;;;;;;17.27;5.38;;;11.40;99.90;;;;;;5097787;28;20083;-79
2021/12/30 09:12:03;;;;;;;19.75;4.93;;;11.40;99.90;;;;;;5077938;28;20044;-78
2021/12/30 09:14:28;;;;;;;16.92;4.35;;;11.50;99.90;;;;;;5102624;22;20055;-85
2021/12/30 09:16:54;;;;;;;12.68;4.53;;;11.50;99.90;;;;;;5094794;28;20048;-78
2021/12/30 09:19:20;;;;;;;17.58;5.20;;;11.90;99.90;;;;;;5094711;28;20063;-78
2021/12/30 09:21:45;;;;;;;19.50;5.70;;;11.50;99.90;;;;;;5096720;28;20119;-79
2021/12/30 09:24:12;;;;;;;16.00;5.40;;;11.60;99.90;;;;;;5094952;28;20062;-79
2021/12/30 09:26:39;;;;;;;20.13;5.72;;;11.40;99.90;;;;;;5095280;28;20060;-78
2021/12/30 09:29:10;;;;;;;22.58;5.20;;;11.40;99.90;;;;;;5094363;28;20044;-78
2021/12/30 09:31:41;;;;;;;15.55;4.85;;;11.30;99.90;;;;;;5094345;28;20122;-78
2021/12/30 09:34:07;;;;;;;20.00;5.05;;;11.40;99.90;;;;;;5092889;28;20397;-78
2021/12/30 09:36:33;;;;;;;17.83;4.50;;;11.60;99.90;;;;;;5094590;28;20056;-78
2021/12/30 09:38:59;;;;;;;17.55;4.60;;;11.40;99.90;;;;;;5094362;28;20128;-78
2021/12/30 09:41:26;;;;;;;20.10;4.55;;;11.60;99.90;;;;;;5092965;28;20126;-78
2021/12/30 09:43:51;;;;;;;20.83;5.10;;;11.30;99.90;;;;;;5094619;28;20082;-78
2021/12/30 09:46:18;;;;;;;19.30;4.68;;;11.30;99.90;;;;;;5094658;28;20048;-79
2021/12/30 09:48:44;;;;;;;17.05;4.20;;;11.30;99.90;;;;;;5093872;28;20044;-78
2021/12/30 09:51:10;;;;;;;23.23;5.40;;;11.30;99.90;;;;;;5093973;28;20086;-78
2021/12/30 09:53:36;;;;;;;19.00;4.45;;;11.30;99.90;;;;;;5094137;28;20040;-78
2021/12/30 09:56:02;;;;;;;15.63;4.65;;;11.30;99.90;;;;;;5077488;28;20032;-78
2021/12/30 09:58:29;;;;;;;21.80;5.45;;;11.20;99.90;;;;;;5094886;28;20028;-78
2021/12/30 10:00:55;;;;;;;18.10;5.05;;;11.30;99.90;;;;;;5105780;22;20071;-81
2021/12/30 10:03:22;;;;;;;23.42;5.88;;;11.30;99.90;;;;;;5055371;28;20464;-78
2021/12/30 10:05:48;;;;;;;24.05;4.97;;;11.20;99.90;;;;;;5072643;28;20554;-78
2021/12/30 10:08:18;;;;;;;18.58;4.38;;;11.20;99.90;;;;;;5072257;28;20070;-78
2021/12/30 10:10:49;;;;;;;22.30;4.95;;;11.20;99.90;;;;;;5072735;28;20041;-78
2021/12/30 10:13:31;;;;;;;23.50;5.15;;;11.20;99.90;;;;;;5073952;28;20041;-78
2021/12/30 10:16:00;;;;;;;20.73;5.22;;;11.20;99.90;;;;;;5073639;28;20055;-78
2021/12/30 10:18:42;;;;;;;21.88;5.95;;;11.20;99.90;;;;;;5073464;28;20044;-78
2021/12/30 10:21:33;;;;;;;25.23;6.15;;;11.30;99.90;;;;;;5075593;28;20089;-78
2021/12/30 10:24:01;;;;;;;24.65;6.43;;;11.30;99.90;;;;;;5051243;28;20176;-78
2021/12/30 10:26:27;;;;;;;26.95;5.72;;;11.30;99.90;;;;;;5051083;28;20060;-78
2021/12/30 10:29:01;;;;;;;24.83;5.93;;;11.30;99.90;;;;;;5018300;28;20059;-78
2021/12/30 10:31:30;;;;;;;31.40;6.30;;;11.30;99.90;;;;;;5051386;28;20045;-78
2021/12/30 10:34:00;;;;;;;28.27;6.05;;;11.30;99.90;;;;;;5052209;28;20056;-78
2021/12/30 10:36:31;;;;;;;23.40;6.18;;;11.30;99.90;;;;;;5051366;28;20120;-78
2021/12/30 10:39:16;;;;;;;26.55;5.90;;;11.30;99.90;;;;;;5051077;28;20055;-78
2021/12/30 10:41:43;;;;;;;24.65;6.18;;;11.30;99.90;;;;;;5034894;28;20432;-79
2021/12/30 10:44:08;;;;;;;29.25;5.63;;;11.30;99.90;;;;;;5051480;28;20049;-88
2021/12/30 10:46:34;;;;;;;29.35;5.78;;;11.30;99.90;;;;;;5051504;28;20049;-78
2021/12/30 10:49:08;;;;;;;34.88;6.88;;;11.40;99.90;;;;;;5050970;28;20107;-78
2021/12/30 10:51:47;;;;;;;32.33;6.38;;;11.40;99.90;;;;;;5051808;28;20127;-78
2021/12/30 10:54:27;;;;;;;26.15;5.38;;;11.40;99.90;;;;;;5051413;28;20057;-78
2021/12/30 10:57:07;;;;;;;35.33;5.95;;;11.30;99.90;;;;;;5034461;28;20055;-78
2021/12/30 10:59:35;;;;;;;37.22;6.40;;;11.40;99.90;;;;;;5019204;28;20090;-78
2021/12/30 11:02:15;;;;;;;33.05;5.80;;;11.40;99.90;;;;;;5071971;28;20503;-78
2021/12/30 11:04:53;;;;;;;24.80;5.40;;;11.40;99.90;;;;;;5073954;28;20102;-80
2021/12/30 11:07:22;;;;;;;26.38;5.38;;;11.40;99.90;;;;;;5074249;28;20048;-78
2021/12/30 11:09:51;;;;;;;34.45;6.50;;;11.50;99.90;;;;;;5074532;28;20037;-78
2021/12/30 11:12:32;;;;;;;23.40;5.75;;;11.40;99.90;;;;;;5074834;28;20068;-79
2021/12/30 11:15:00;;;;;;;32.78;6.00;;;11.40;99.90;;;;;;5057579;28;20100;-79
2021/12/30 11:17:34;;;;;;;35.00;5.65;;;11.40;99.90;;;;;;5078317;28;20207;-79
2021/12/30 11:20:09;;;;;;;30.10;5.93;;;11.40;99.90;;;;;;5078821;28;20494;-79
2021/12/30 11:22:36;;;;;;;32.40;5.60;;;11.40;99.90;;;;;;5062104;28;20383;-79
2021/12/30 11:25:11;;;;;;;27.48;5.15;;;11.60;99.90;;;;;;5077341;28;20083;-79
2021/12/30 11:27:37;;;;;;;;;;;11.50;99.90;;;;;;5076584;28;20036;-79
2021/12/30 11:30:03;;;;;;;;;;;11.60;99.90;;;;;;5078005;28;19999;-79
2021/12/30 11:32:30;;;;;;;;;;;11.50;99.90;;;;;;5078572;28;20318;-79
2021/12/30 11:34:56;;;;;;;;;;;11.60;99.90;;;;;;5078433;28;19924;-87
2021/12/30 11:37:22;;;;;;;;;;;11.40;99.90;;;;;;5077638;28;19916;-79
2021/12/30 11:39:49;;;;;;;;;;;11.50;99.90;;;;;;5077112;28;19928;-78
2021/12/30 11:42:19;;;;;;;;;;;11.70;99.90;;;;;;5077227;28;19927;-79
2021/12/30 11:44:46;;;;;;;;;;;11.40;99.90;;;;;;5075978;28;19920;-79
2021/12/30 11:47:31;;;;;;;;;;;11.40;99.90;;;;;;5077302;28;20359;-86
2021/12/30 11:50:07;;;;;;;;;;;11.50;99.90;;;;;;5077141;28;20404;-79
2021/12/30 11:52:53;;;;;;;;;;;11.50;99.90;;;;;;5077114;28;19928;-79
2021/12/30 11:55:37;;;;;;;;;;;11.50;99.90;;;;;;5074863;28;19927;-79
2021/12/30 11:58:22;;;;;;;;;;;11.50;99.90;;;;;;5075367;28;20423;-79
2021/12/30 12:00:49;;;;;;;;;;;11.60;99.90;;;;;;5078164;28;19920;-79
2021/12/30 12:03:27;;;;;;;;;;;11.50;99.90;;;;;;5078260;28;19928;-79
2021/12/30 12:05:53;;;;;;;;;;;11.50;99.90;;;;;;5077324;28;19927;-79
2021/12/30 12:08:19;;;;;;;;;;;11.70;99.90;;;;;;5076683;28;20294;-85
2021/12/30 12:11:04;;;;;;;;;;;11.50;99.90;;;;;;5077982;28;19975;-79
2021/12/30 12:13:37;;;;;;;;;;;11.60;99.90;;;;;;5078534;22;19965;-79
2021/12/30 12:16:03;;;;;;;;;;;11.50;99.90;;;;;;5080195;28;19949;-80
2021/12/30 12:18:29;;;;;;;;;;;11.50;99.90;;;;;;5116545;22;19955;-80
2021/12/30 12:20:57;;;;;;;;;;;11.50;99.90;;;;;;5101821;28;20381;-80
2021/12/30 12:23:34;;;;;;;;;;;11.50;99.90;;;;;;5099862;28;19920;-83
2021/12/30 12:26:21;;;;;;;;;;;11.50;99.90;;;;;;5081933;28;19916;-80
2021/12/30 12:28:48;;;;;;;;;;;11.60;99.90;;;;;;5083672;28;19965;-84
2021/12/30 12:31:14;;;;;;;;;;;11.90;99.90;;;;;;5092422;22;20336;-80
2021/12/30 12:33:41;;;;;;;;;;;11.60;99.90;;;;;;5091582;22;20019;-80
2021/12/30 12:36:30;;;;;;;;;;;11.60;99.90;;;;;;5083071;28;19919;-85
2021/12/30 12:38:55;;;;;;;;;;;11.60;99.90;;;;;;5024450;28;19925;-81
2021/12/30 12:41:21;;;;;;;;;;;11.60;99.90;;;;;;5063421;22;19924;-83
2021/12/30 12:44:06;;;;;;;;;;;11.60;99.90;;;;;;5087100;28;19920;-80
2021/12/30 12:46:45;;;;;;;;;;;11.60;99.90;;;;;;5086642;28;19930;-81
2021/12/30 12:49:11;;;;;;;;;;;11.50;99.90;;;;;;5084269;28;19927;-79
2021/12/30 12:51:48;;;;;;;;;;;11.50;99.90;;;;;;5088742;22;19927;-79
2021/12/30 12:54:14;;;;;;;;;;;11.50;99.90;;;;;;5082673;28;19974;-80
2021/12/30 12:56:40;;;;;;;;;;;11.60;99.90;;;;;;5084146;28;20294;-80